Time;durP1;ratioP1;P1;durP2;ratioP2;P2;SDS_P1;SDS_P2;PMS_P1;PMS_P2;Temp;Humidity;BMP_temperature;BMP_pressure;BME280_temperature;BME280_humidity;BME280_pressure;Samples;Min_cycle;Max_cycle;Signal;HPM_P1;HPM_P2
2022/01/14 00:01:40;;;;;;;35.72;13.85;;;-2.30;99.90;;;;;;4954969;29;20483;-82
2022/01/14 00:04:06;;;;;;;28.95;12.50;;;-2.20;99.90;;;;;;4938525;29;20038;-83
2022/01/14 00:06:32;;;;;;;32.80;11.88;;;-2.10;99.90;;;;;;4938098;29;20559;-84
2022/01/14 00:09:06;;;;;;;30.58;12.48;;;-2.10;99.90;;;;;;4954361;29;20042;-84
2022/01/14 00:11:33;;;;;;;29.75;13.20;;;-2.10;99.90;;;;;;4953907;29;20439;-84
2022/01/14 00:16:34;;;;;;;34.58;14.10;;;-2.20;99.90;;;;;;4938949;29;20046;-84
2022/01/14 00:19:00;;;;;;;36.40;15.77;;;-2.20;99.90;;;;;;4938609;29;20471;-84
2022/01/14 00:21:27;;;;;;;39.20;14.63;;;-2.20;99.90;;;;;;4954968;29;20031;-84
2022/01/14 00:24:04;;;;;;;35.00;14.52;;;-2.20;99.90;;;;;;4939300;29;20027;-85
2022/01/14 00:32:05;;;;;;;40.25;15.35;;;-2.20;99.90;;;;;;4954596;29;20039;-83
2022/01/14 00:34:30;;;;;;;41.65;14.88;;;-2.10;99.90;;;;;;4954619;29;20031;-83
2022/01/14 00:36:58;;;;;;;53.78;18.67;;;-2.00;99.90;;;;;;4938010;29;20039;-83
2022/01/14 00:39:27;;;;;;;49.35;18.05;;;-2.00;99.90;;;;;;4954919;29;20510;-82
2022/01/14 00:41:53;;;;;;;53.58;18.63;;;-2.00;99.90;;;;;;4955358;28;20368;-83
2022/01/14 00:44:20;;;;;;;50.50;18.40;;;-2.00;99.90;;;;;;4939092;29;20033;-83
2022/01/14 00:46:48;;;;;;;50.08;18.85;;;-2.00;99.90;;;;;;4938807;29;20027;-83
2022/01/14 00:49:15;;;;;;;39.65;18.15;;;-2.00;99.90;;;;;;4938448;29;20036;-83
2022/01/14 00:51:41;;;;;;;42.25;16.70;;;-2.00;99.90;;;;;;4955616;29;20042;-84
2022/01/14 00:54:08;;;;;;;45.85;19.20;;;-2.10;99.90;;;;;;4958245;29;20035;-84
2022/01/14 00:56:46;;;;;;;48.25;21.63;;;-2.20;99.90;;;;;;4958753;28;20028;-83
2022/01/14 00:59:16;;;;;;;57.00;22.88;;;-2.10;99.90;;;;;;4958488;29;20130;-84
2022/01/14 01:01:51;;;;;;;50.45;22.70;;;-2.10;99.90;;;;;;4941957;29;20503;-83
2022/01/14 01:04:22;;;;;;;61.38;24.33;;;-2.10;99.90;;;;;;4941574;29;20427;-84
2022/01/14 01:06:48;;;;;;;;;;;-2.10;99.90;;;;;;4942431;29;20031;-84
2022/01/14 01:09:15;;;;;;;57.83;23.58;;;-2.10;99.90;;;;;;4942263;29;19920;-84
2022/01/14 01:12:05;;;;;;;63.85;24.13;;;-2.10;99.90;;;;;;4942100;29;20035;-83
2022/01/14 01:14:52;;;;;;;49.45;21.85;;;-2.10;99.90;;;;;;4942465;29;20027;-84
2022/01/14 01:17:18;;;;;;;47.08;20.27;;;-2.10;99.90;;;;;;4959531;29;20031;-83
2022/01/14 01:19:45;;;;;;;52.53;20.40;;;-2.10;99.90;;;;;;4941841;29;20039;-84
2022/01/14 01:22:20;;;;;;;39.15;17.80;;;-2.10;99.90;;;;;;4958406;29;20062;-84
2022/01/14 01:25:00;;;;;;;50.75;17.02;;;-2.10;99.90;;;;;;4955656;28;20027;-84
2022/01/14 01:27:26;;;;;;;36.42;15.63;;;-2.10;99.90;;;;;;4941760;29;20095;-84
2022/01/14 01:29:59;;;;;;;42.53;14.95;;;-2.10;99.90;;;;;;4957512;29;20045;-84
2022/01/14 01:32:25;;;;;;;34.22;13.23;;;-2.10;99.90;;;;;;4957959;28;20199;-84
2022/01/14 01:34:51;;;;;;;29.92;12.15;;;-2.20;99.90;;;;;;4940921;29;20147;-84
2022/01/14 01:37:17;;;;;;;28.08;10.57;;;-2.30;99.90;;;;;;4956845;29;20042;-84
2022/01/14 01:39:46;;;;;;;31.98;11.35;;;-2.30;99.90;;;;;;4956947;29;20035;-83
2022/01/14 01:42:12;;;;;;;20.65;9.68;;;-2.30;99.90;;;;;;4957495;29;20035;-84
2022/01/14 01:44:39;;;;;;;26.65;9.55;;;-2.30;99.90;;;;;;4957652;29;20035;-83
2022/01/14 01:47:06;;;;;;;27.63;9.63;;;-2.30;99.90;;;;;;4941941;29;20487;-84
2022/01/14 01:49:35;;;;;;;21.75;9.07;;;-2.30;99.90;;;;;;4941656;29;20046;-83
2022/01/14 01:52:01;;;;;;;21.13;9.45;;;-2.30;99.90;;;;;;4957681;29;20391;-84
2022/01/14 01:54:28;;;;;;;25.77;10.10;;;-2.30;99.90;;;;;;4957896;29;20035;-84
2022/01/14 01:56:55;;;;;;;20.27;9.10;;;-2.20;99.90;;;;;;4941566;29;20027;-84
2022/01/14 01:59:33;;;;;;;21.67;9.13;;;-2.30;99.90;;;;;;4958635;29;20034;-84
2022/01/14 02:02:00;;;;;;;27.83;8.70;;;-2.20;99.90;;;;;;4941943;29;20460;-84
2022/01/14 02:04:27;;;;;;;23.98;8.98;;;-2.20;99.90;;;;;;4957676;29;20031;-84
2022/01/14 02:06:54;;;;;;;27.48;9.23;;;-2.20;99.90;;;;;;4956453;28;20114;-83
2022/01/14 02:09:21;;;;;;;22.92;8.13;;;-2.20;99.90;;;;;;4957736;29;20479;-83
2022/01/14 02:11:47;;;;;;;20.10;8.90;;;-2.10;99.90;;;;;;4940578;29;20546;-83
2022/01/14 02:19:42;;;;;;;20.85;8.23;;;-2.20;99.90;;;;;;4955777;29;20035;-83
2022/01/14 02:22:23;;;;;;;25.67;8.52;;;-2.30;99.90;;;;;;4955670;29;20031;-83
2022/01/14 02:24:59;;;;;;;17.02;7.38;;;-2.30;99.90;;;;;;4939518;29;20130;-84
2022/01/14 02:27:24;;;;;;;22.92;8.68;;;-2.30;99.90;;;;;;4955246;29;20038;-84
2022/01/14 02:29:50;;;;;;;23.35;8.95;;;-2.30;99.90;;;;;;4955380;29;20035;-82
2022/01/14 02:32:15;;;;;;;24.20;9.88;;;-2.30;99.90;;;;;;4955279;29;20035;-83
2022/01/14 02:34:41;;;;;;;25.00;9.73;;;-2.30;99.90;;;;;;4955271;29;20042;-83
2022/01/14 02:37:07;;;;;;;27.90;11.45;;;-2.40;99.90;;;;;;4955197;29;20587;-83
2022/01/14 02:39:33;;;;;;;41.13;12.90;;;-2.40;99.90;;;;;;4955445;29;20062;-83
2022/01/14 02:41:59;;;;;;;35.17;13.50;;;-2.40;99.90;;;;;;4939433;29;20035;-83
2022/01/14 02:44:27;;;;;;;36.50;13.15;;;-2.40;99.90;;;;;;4955217;29;20041;-83
2022/01/14 02:47:05;;;;;;;42.45;13.25;;;-2.50;99.90;;;;;;4955464;28;20046;-83
2022/01/14 02:49:33;;;;;;;26.88;10.75;;;-2.50;99.90;;;;;;4955300;29;20059;-83
2022/01/14 02:52:04;;;;;;;30.85;12.27;;;-2.50;99.90;;;;;;4939607;29;20131;-83
2022/01/14 02:55:14;;;;;;;39.13;13.85;;;-2.50;99.90;;;;;;4955237;29;20372;-83
2022/01/14 02:57:44;;;;;;;40.58;14.70;;;-2.60;99.90;;;;;;4955340;29;20110;-83
2022/01/14 03:00:11;;;;;;;38.60;15.80;;;-2.50;99.90;;;;;;4939125;29;20431;-83
2022/01/14 03:02:50;;;;;;;39.20;16.30;;;-2.60;99.90;;;;;;4938998;29;20031;-83
2022/01/14 03:05:18;;;;;;;41.83;16.38;;;-2.60;99.90;;;;;;4938843;29;20038;-83
2022/01/14 03:07:45;;;;;;;46.65;19.13;;;-2.60;99.90;;;;;;4939044;29;20074;-83
2022/01/14 03:10:13;;;;;;;63.60;22.70;;;-2.50;99.90;;;;;;4939063;29;20506;-83
2022/01/14 03:12:40;;;;;;;47.03;18.88;;;-2.50;99.90;;;;;;4955182;29;20031;-83
2022/01/14 03:15:08;;;;;;;69.95;25.08;;;-2.50;99.90;;;;;;4938338;29;20039;-83
2022/01/14 03:17:33;;;;;;;70.75;25.83;;;-2.50;99.90;;;;;;4938641;28;20035;-83
2022/01/14 03:20:01;;;;;;;68.53;27.17;;;-2.50;99.90;;;;;;4954313;29;20031;-83
2022/01/14 03:22:32;;;;;;;81.63;29.75;;;-2.60;99.90;;;;;;4938592;29;20486;-83
2022/01/14 03:27:42;;;;;;;69.35;26.05;;;-2.60;99.90;;;;;;4954750;29;20027;-83
2022/01/14 03:30:23;;;;;;;65.10;25.00;;;-2.50;99.90;;;;;;4954630;29;20086;-83
2022/01/14 03:32:55;;;;;;;56.17;21.90;;;-2.50;99.90;;;;;;4938514;29;20046;-83
2022/01/14 03:35:21;;;;;;;62.03;23.50;;;-2.50;99.90;;;;;;4938112;29;20094;-83
2022/01/14 03:37:46;;;;;;;69.93;24.92;;;-2.50;99.90;;;;;;4938168;29;20467;-83
2022/01/14 03:40:12;;;;;;;59.50;24.48;;;-2.50;99.90;;;;;;4954153;28;20036;-82
2022/01/14 03:42:38;;;;;;;59.08;24.45;;;-2.60;99.90;;;;;;4954033;29;20207;-82
2022/01/14 03:45:19;;;;;;;64.72;24.95;;;-2.60;99.90;;;;;;4954006;28;20098;-82
2022/01/14 03:47:45;;;;;;;55.80;23.45;;;-2.60;99.90;;;;;;4953801;29;20479;-82
2022/01/14 03:50:11;;;;;;;56.20;21.80;;;-2.70;99.90;;;;;;4953552;28;20045;-82
2022/01/14 03:52:37;;;;;;;54.05;21.17;;;-2.70;99.90;;;;;;4937471;29;20063;-82
2022/01/14 03:55:03;;;;;;;54.85;22.75;;;-2.70;99.90;;;;;;4937283;29;20085;-82
2022/01/14 03:57:29;;;;;;;55.28;22.30;;;-2.70;99.90;;;;;;4937889;29;20031;-82
2022/01/14 03:59:54;;;;;;;53.08;19.98;;;-2.70;99.90;;;;;;4953517;29;20412;-82
2022/01/14 04:02:20;;;;;;;60.58;20.98;;;-2.60;99.90;;;;;;4953794;28;20024;-82
2022/01/14 04:04:46;;;;;;;59.88;21.48;;;-2.60;99.90;;;;;;4953670;28;20035;-83
2022/01/14 04:07:11;;;;;;;50.65;19.88;;;-2.70;99.90;;;;;;4953682;29;20035;-82
2022/01/14 04:09:37;;;;;;;55.67;19.85;;;-2.70;99.90;;;;;;4953680;28;20046;-83
2022/01/14 04:12:07;;;;;;;53.75;20.05;;;-2.70;99.90;;;;;;4937699;29;20046;-83
2022/01/14 04:17:00;;;;;;;47.72;19.35;;;-2.80;99.90;;;;;;4953662;29;20039;-82
2022/01/14 04:19:29;;;;;;;64.60;22.25;;;-2.80;99.90;;;;;;4937611;29;20062;-83
2022/01/14 04:21:55;;;;;;;59.55;20.98;;;-2.80;99.90;;;;;;4937545;29;20399;-82
2022/01/14 04:24:21;;;;;;;64.43;24.02;;;-2.80;99.90;;;;;;4937227;29;20031;-83
2022/01/14 04:26:47;;;;;;;73.10;25.63;;;-2.70;99.90;;;;;;4953541;28;20571;-82
2022/01/14 04:29:13;;;;;;;64.95;23.90;;;-2.60;99.90;;;;;;4953366;28;20103;-82
2022/01/14 04:31:39;;;;;;;62.40;22.83;;;-2.70;99.90;;;;;;4940140;29;20403;-82
2022/01/14 04:34:05;;;;;;;57.55;19.60;;;-2.70;99.90;;;;;;4956661;29;20035;-82
2022/01/14 04:36:31;;;;;;;48.35;19.42;;;-2.70;99.90;;;;;;4956908;29;20443;-82
2022/01/14 04:38:56;;;;;;;53.17;19.30;;;-2.60;99.90;;;;;;4956989;29;20125;-83
2022/01/14 04:41:22;;;;;;;46.42;19.20;;;-2.70;99.90;;;;;;4957144;29;20444;-83
2022/01/14 04:43:48;;;;;;;56.55;19.38;;;-2.70;99.90;;;;;;4941071;29;20031;-82
2022/01/14 04:46:36;;;;;;;47.20;17.40;;;-2.80;99.90;;;;;;4957115;29;20034;-83
2022/01/14 04:48:59;;;;;;;52.17;18.42;;;-2.70;99.90;;;;;;4941109;29;20035;-82
2022/01/14 04:51:40;;;;;;;53.13;18.48;;;-2.80;99.90;;;;;;4940997;29;20121;-82
2022/01/14 04:54:06;;;;;;;59.75;20.40;;;-2.70;99.90;;;;;;4940980;29;20046;-82
2022/01/14 04:56:33;;;;;;;57.40;19.48;;;-2.60;99.90;;;;;;4957171;29;20130;-82
2022/01/14 04:58:58;;;;;;;54.25;18.08;;;-2.60;99.90;;;;;;4958194;29;20046;-83
2022/01/14 05:01:24;;;;;;;45.22;17.70;;;-2.60;99.90;;;;;;4940748;29;20027;-82
2022/01/14 05:03:50;;;;;;;45.33;16.33;;;-2.60;99.90;;;;;;4956522;29;20020;-82
2022/01/14 05:06:15;;;;;;;40.90;15.38;;;-2.70;99.90;;;;;;4956719;29;20031;-83
2022/01/14 05:08:41;;;;;;;38.75;14.73;;;-2.70;99.90;;;;;;4956720;29;20035;-82
2022/01/14 05:13:45;;;;;;;48.25;14.75;;;-2.80;99.90;;;;;;4956413;29;20035;-83
2022/01/14 05:16:10;;;;;;;45.80;15.25;;;-2.80;99.90;;;;;;4940636;29;20046;-82
2022/01/14 05:18:38;;;;;;;41.00;16.25;;;-2.90;99.90;;;;;;4956438;29;20814;-83
2022/01/14 05:21:07;;;;;;;35.95;15.20;;;-2.80;99.90;;;;;;4956453;29;20035;-83
2022/01/14 05:23:48;;;;;;;76.03;24.55;;;-2.90;99.90;;;;;;4956306;28;20047;-82
2022/01/14 05:26:14;;;;;;;56.50;19.80;;;-2.80;99.90;;;;;;4956498;29;20483;-82
2022/01/14 05:28:45;;;;;;;61.60;22.45;;;-2.80;99.90;;;;;;4940256;29;20039;-82
2022/01/14 05:31:11;;;;;;;71.53;25.13;;;-2.80;99.90;;;;;;4940524;29;20039;-82
2022/01/14 05:33:42;;;;;;;79.75;26.67;;;-2.80;99.90;;;;;;4956934;29;20356;-82
2022/01/14 05:36:07;;;;;;;70.30;25.55;;;-2.90;99.90;;;;;;4941266;29;20034;-83
2022/01/14 05:38:33;;;;;;;85.93;29.08;;;-2.80;99.90;;;;;;4940857;29;20040;-83
2022/01/14 05:40:59;;;;;;;85.22;27.92;;;-2.90;99.90;;;;;;4939968;28;20039;-82
2022/01/14 05:43:24;;;;;;;70.05;24.20;;;-2.90;99.90;;;;;;4957466;29;20483;-82
2022/01/14 05:45:50;;;;;;;62.53;22.42;;;-2.90;99.90;;;;;;4940746;29;20126;-82
2022/01/14 05:48:16;;;;;;;72.72;25.70;;;-2.90;99.90;;;;;;4940866;29;20035;-83
2022/01/14 05:50:42;;;;;;;68.30;24.20;;;-2.90;99.90;;;;;;4956397;29;20035;-82
2022/01/14 05:53:08;;;;;;;71.75;26.70;;;-2.90;99.90;;;;;;4955788;29;20054;-82
2022/01/14 05:55:33;;;;;;;88.22;31.15;;;-2.90;99.90;;;;;;4939648;29;20039;-83
2022/01/14 05:57:59;;;;;;;85.32;29.70;;;-2.90;99.90;;;;;;4955568;29;20054;-83
2022/01/14 06:00:25;;;;;;;87.68;30.38;;;-2.90;99.90;;;;;;4955860;29;20047;-83
2022/01/14 06:02:51;;;;;;;81.35;28.58;;;-2.90;99.90;;;;;;4956026;29;20479;-83
2022/01/14 06:05:19;;;;;;;76.93;27.63;;;-3.00;99.90;;;;;;4957015;29;20046;-83
2022/01/14 06:07:45;;;;;;;72.00;29.42;;;-3.10;99.90;;;;;;4955607;29;20035;-83
2022/01/14 06:10:10;;;;;;;102.85;38.28;;;-3.10;99.90;;;;;;4955401;28;20047;-83
2022/01/14 06:12:37;;;;;;;95.13;36.63;;;-3.00;99.90;;;;;;4955668;29;20038;-83
2022/01/14 06:15:03;;;;;;;120.82;38.58;;;-3.00;99.90;;;;;;4956169;29;20038;-83
2022/01/14 06:17:29;;;;;;;103.72;37.17;;;-3.00;99.90;;;;;;4940717;29;20525;-83
2022/01/14 06:19:55;;;;;;;115.20;39.85;;;-3.00;99.90;;;;;;4939905;29;20074;-83
2022/01/14 06:22:21;;;;;;;125.65;41.08;;;-3.00;99.90;;;;;;4940399;29;20097;-83
2022/01/14 06:24:48;;;;;;;118.97;41.33;;;-3.00;99.90;;;;;;4940229;29;20036;-83
2022/01/14 06:27:13;;;;;;;118.13;39.00;;;-3.00;99.90;;;;;;4956364;29;20035;-83
2022/01/14 06:29:43;;;;;;;107.47;38.63;;;-3.00;99.90;;;;;;4956279;29;20034;-82
2022/01/14 06:32:08;;;;;;;89.45;34.70;;;-3.00;99.90;;;;;;4940519;29;20035;-83
2022/01/14 06:34:34;;;;;;;107.43;34.58;;;-3.00;99.90;;;;;;4955523;29;20054;-83
2022/01/14 06:37:00;;;;;;;108.40;37.30;;;-3.00;99.90;;;;;;4955384;29;20046;-83
2022/01/14 06:39:29;;;;;;;111.50;37.45;;;-3.00;99.90;;;;;;4939580;29;20027;-83
2022/01/14 06:41:58;;;;;;;114.40;38.95;;;-3.00;99.90;;;;;;4955638;29;20032;-83
2022/01/14 06:44:24;;;;;;;109.82;40.80;;;-2.90;99.90;;;;;;4954998;29;20122;-83
2022/01/14 06:46:49;;;;;;;121.90;44.53;;;-2.90;99.90;;;;;;4954913;29;20118;-82
2022/01/14 06:49:15;;;;;;;113.25;42.35;;;-2.80;99.90;;;;;;4955048;29;20387;-83
2022/01/14 06:51:41;;;;;;;116.68;43.58;;;-2.90;99.90;;;;;;4954772;29;20100;-83
2022/01/14 06:54:06;;;;;;;112.15;41.20;;;-2.80;99.90;;;;;;4953950;28;20032;-83
2022/01/14 06:56:33;;;;;;;106.75;39.15;;;-2.80;99.90;;;;;;4954940;28;20027;-83
2022/01/14 06:58:59;;;;;;;89.20;30.85;;;-2.80;99.90;;;;;;4954691;29;20039;-83
2022/01/14 07:01:24;;;;;;;100.00;35.80;;;-2.70;99.90;;;;;;4954326;29;20541;-83
2022/01/14 07:03:50;;;;;;;93.72;34.00;;;-2.60;99.90;;;;;;4954273;29;20062;-82
2022/01/14 07:06:16;;;;;;;90.55;31.50;;;-2.40;99.90;;;;;;4954625;29;20035;-83
2022/01/14 07:08:41;;;;;;;89.72;31.40;;;-2.40;99.90;;;;;;4954724;29;20031;-83
2022/01/14 07:11:07;;;;;;;88.43;29.15;;;-2.30;99.90;;;;;;4954433;29;20035;-83
2022/01/14 07:13:33;;;;;;;80.80;29.50;;;-2.30;99.90;;;;;;4954397;29;20411;-83
2022/01/14 07:15:59;;;;;;;81.57;30.10;;;-2.20;99.90;;;;;;4956809;29;20067;-84
2022/01/14 07:18:24;;;;;;;72.28;29.92;;;-2.20;99.90;;;;;;4941414;29;20106;-85
2022/01/14 07:20:50;;;;;;;76.70;28.77;;;-2.00;99.90;;;;;;4923215;29;20130;-84
2022/01/14 07:23:34;;;;;;;84.05;30.52;;;-2.00;99.90;;;;;;4954160;28;20387;-84
2022/01/14 07:26:00;;;;;;;82.75;31.35;;;-2.00;99.90;;;;;;4938314;29;20491;-84
2022/01/14 07:28:26;;;;;;;94.18;34.60;;;-2.00;99.90;;;;;;4938452;29;20114;-84
2022/01/14 07:30:51;;;;;;;96.80;36.85;;;-1.90;99.90;;;;;;4955408;29;20027;-84
2022/01/14 07:33:17;;;;;;;116.50;38.30;;;-1.80;99.90;;;;;;4938425;29;20070;-84
2022/01/14 07:35:43;;;;;;;97.68;38.08;;;-1.80;99.90;;;;;;4954820;29;20031;-84
2022/01/14 07:38:09;;;;;;;106.35;41.13;;;-1.70;99.90;;;;;;4954705;28;20086;-85
2022/01/14 07:40:37;;;;;;;113.90;44.00;;;-1.80;99.90;;;;;;4954604;29;20043;-83
2022/01/14 07:43:03;;;;;;;107.05;38.85;;;-1.80;99.90;;;;;;4954213;28;20039;-84
2022/01/14 07:45:28;;;;;;;98.18;38.75;;;-1.80;99.90;;;;;;4937768;29;20035;-83
2022/01/14 07:47:54;;;;;;;96.85;37.60;;;-1.80;99.90;;;;;;4953791;29;20035;-83
2022/01/14 07:50:20;;;;;;;107.65;40.15;;;-1.80;99.90;;;;;;4938778;29;20031;-83
2022/01/14 07:52:45;;;;;;;99.68;42.05;;;-1.80;99.90;;;;;;4955544;29;20027;-83
2022/01/14 07:55:11;;;;;;;106.38;41.72;;;-1.80;99.90;;;;;;4953994;29;20508;-83
2022/01/14 07:57:37;;;;;;;91.15;38.28;;;-1.80;99.90;;;;;;4954396;29;20036;-83
2022/01/14 08:00:06;;;;;;;95.78;38.97;;;-1.90;99.90;;;;;;4953501;29;20059;-83
2022/01/14 08:02:33;;;;;;;101.70;36.45;;;-1.90;99.90;;;;;;4954988;29;20491;-83
2022/01/14 08:04:59;;;;;;;83.15;31.50;;;-1.90;99.90;;;;;;4953206;28;20031;-83
2022/01/14 08:07:28;;;;;;;73.00;30.83;;;-1.90;99.90;;;;;;4937182;29;20027;-84
2022/01/14 08:09:54;;;;;;;74.93;31.92;;;-1.80;99.90;;;;;;4937611;29;20082;-83
2022/01/14 08:12:19;;;;;;;71.55;31.85;;;-1.80;99.90;;;;;;4937250;29;20031;-83
2022/01/14 08:14:45;;;;;;;81.22;32.65;;;-1.80;99.90;;;;;;4953556;29;20439;-83
2022/01/14 08:17:14;;;;;;;83.38;32.25;;;-1.70;99.90;;;;;;4953645;29;20031;-84
2022/01/14 08:19:40;;;;;;;65.47;27.42;;;-1.70;99.90;;;;;;4953629;29;20043;-83
2022/01/14 08:22:11;;;;;;;67.80;28.65;;;-1.50;99.90;;;;;;4937786;29;20035;-83
2022/01/14 08:24:37;;;;;;;70.72;29.33;;;-1.40;99.90;;;;;;4953399;29;20031;-83
2022/01/14 08:27:05;;;;;;;80.97;33.67;;;-1.30;99.90;;;;;;4937721;29;20118;-83
2022/01/14 08:29:47;;;;;;;74.78;32.55;;;-1.30;99.90;;;;;;4937785;29;20427;-83
2022/01/14 08:32:14;;;;;;;83.90;37.97;;;-1.10;99.90;;;;;;4937543;29;20066;-83
2022/01/14 08:34:40;;;;;;;106.00;44.40;;;-1.00;99.90;;;;;;4953415;29;20039;-83
2022/01/14 08:37:05;;;;;;;108.22;48.83;;;-0.80;99.90;;;;;;4953599;29;20038;-84
2022/01/14 08:39:31;;;;;;;115.13;51.53;;;-0.60;99.90;;;;;;4953155;28;20035;-83
2022/01/14 08:41:58;;;;;;;92.20;42.28;;;-0.50;99.90;;;;;;4937564;29;20039;-82
2022/01/14 08:44:24;;;;;;;99.03;38.10;;;-0.50;99.90;;;;;;4937868;29;20031;-86
2022/01/14 08:46:52;;;;;;;96.53;41.00;;;-0.40;99.90;;;;;;4939907;29;20463;-88
2022/01/14 08:49:18;;;;;;;103.65;46.65;;;-0.30;99.90;;;;;;4922733;29;20669;-86
2022/01/14 08:51:44;;;;;;;124.63;54.63;;;-0.30;99.90;;;;;;4938237;29;20039;-87
2022/01/14 08:54:09;;;;;;;114.60;48.92;;;-0.30;99.90;;;;;;4953884;29;20611;-87
2022/01/14 08:56:36;;;;;;;100.43;43.85;;;-0.20;99.90;;;;;;4954171;28;20157;-87
2022/01/14 08:59:03;;;;;;;104.47;46.65;;;-0.20;99.90;;;;;;4953767;29;20475;-87
2022/01/14 09:01:29;;;;;;;95.80;41.45;;;-0.10;99.90;;;;;;4937952;29;20063;-87
2022/01/14 09:03:55;;;;;;;80.45;35.25;;;-0.10;99.90;;;;;;4953715;29;20078;-87
2022/01/14 09:06:20;;;;;;;74.25;34.50;;;0.00;99.90;;;;;;4937870;29;20035;-87
2022/01/14 09:08:46;;;;;;;72.75;31.55;;;0.20;99.90;;;;;;4937856;29;20475;-87
2022/01/14 09:11:12;;;;;;;69.30;32.47;;;0.30;99.90;;;;;;4922314;29;20046;-87
2022/01/14 09:13:38;;;;;;;59.38;26.15;;;0.30;99.90;;;;;;4955146;29;20498;-87
2022/01/14 09:16:04;;;;;;;58.03;26.83;;;0.50;99.90;;;;;;4955879;28;20027;-87
2022/01/14 09:18:29;;;;;;;54.40;23.10;;;0.60;99.90;;;;;;4941668;29;20035;-86
2022/01/14 09:20:58;;;;;;;41.40;18.23;;;0.70;99.90;;;;;;4957616;29;20031;-87
2022/01/14 09:23:25;;;;;;;36.63;17.83;;;0.80;99.90;;;;;;4958570;29;20027;-86
2022/01/14 09:25:54;;;;;;;35.65;15.35;;;0.90;99.90;;;;;;4941427;29;20451;-87
2022/01/14 09:28:20;;;;;;;32.17;15.18;;;1.00;99.90;;;;;;4941247;29;20043;-87
2022/01/14 09:30:46;;;;;;;23.65;12.68;;;1.20;99.90;;;;;;4957095;29;20069;-86
2022/01/14 09:33:12;;;;;;;21.63;9.55;;;1.30;99.90;;;;;;4940916;29;20035;-87
2022/01/14 09:35:40;;;;;;;18.38;9.75;;;1.40;99.90;;;;;;4941041;29;20045;-87
2022/01/14 09:38:06;;;;;;;20.05;10.32;;;1.40;99.90;;;;;;4957582;29;20042;-86
2022/01/14 09:40:32;;;;;;;17.20;8.07;;;1.60;99.90;;;;;;4941176;29;20126;-88
2022/01/14 09:43:01;;;;;;;20.33;9.90;;;1.60;99.90;;;;;;4941877;29;20441;-86
2022/01/14 09:45:28;;;;;;;27.42;12.05;;;1.70;99.90;;;;;;4956601;29;20027;-87
2022/01/14 09:47:55;;;;;;;29.85;12.38;;;1.80;99.90;;;;;;4940930;29;20042;-86
2022/01/14 09:50:22;;;;;;;45.40;18.67;;;1.90;99.90;;;;;;4940230;29;20035;-86
2022/01/14 09:52:52;;;;;;;27.05;11.48;;;2.00;99.90;;;;;;4940785;29;20039;-86
2022/01/14 09:55:20;;;;;;;22.80;9.80;;;2.10;99.90;;;;;;4956698;29;20055;-86
2022/01/14 09:57:45;;;;;;;24.35;11.43;;;2.40;99.90;;;;;;4940356;29;20039;-87
2022/01/14 10:00:12;;;;;;;18.85;8.85;;;2.90;99.90;;;;;;4956503;29;20039;-85
2022/01/14 10:02:40;;;;;;;22.63;13.13;;;4.00;99.90;;;;;;4956811;29;20538;-85
2022/01/14 10:05:08;;;;;;;25.35;12.93;;;4.70;99.90;;;;;;4940594;29;20059;-85
2022/01/14 10:07:34;;;;;;;18.23;9.55;;;5.50;99.90;;;;;;4956682;29;20031;-85
2022/01/14 10:10:21;;;;;;;16.95;9.38;;;5.80;99.90;;;;;;4956988;29;20046;-86
2022/01/14 10:12:47;;;;;;;24.80;11.23;;;5.90;99.90;;;;;;4940734;29;20039;-86
2022/01/14 10:15:13;;;;;;;18.83;10.13;;;6.00;99.90;;;;;;4957444;29;20031;-86
2022/01/14 10:17:44;;;;;;;18.52;9.25;;;6.10;99.90;;;;;;4956896;29;20049;-86
2022/01/14 10:20:12;;;;;;;12.07;5.83;;;6.30;99.90;;;;;;4957295;29;20039;-86
2022/01/14 10:22:46;;;;;;;11.60;5.47;;;6.40;99.90;;;;;;4957060;29;20123;-86
2022/01/14 10:25:18;;;;;;;18.30;8.38;;;6.20;99.90;;;;;;4956280;29;20066;-86
2022/01/14 10:27:46;;;;;;;41.95;20.27;;;6.50;99.90;;;;;;4955587;28;20480;-86
2022/01/14 10:30:28;;;;;;;42.63;21.60;;;7.10;99.90;;;;;;4939808;29;20027;-86
2022/01/14 10:32:58;;;;;;;;;;;7.50;99.90;;;;;;4956576;29;20054;-86
2022/01/14 10:35:27;;;;;;;68.53;24.08;;;7.80;99.90;;;;;;4939448;29;20282;-86
2022/01/14 10:38:01;;;;;;;64.95;30.35;;;8.10;99.90;;;;;;4939335;29;20081;-86
2022/01/14 10:40:29;;;;;;;36.53;22.02;;;8.00;99.90;;;;;;4939064;29;20046;-86
2022/01/14 10:43:07;;;;;;;24.73;13.05;;;8.00;99.90;;;;;;4939512;29;20034;-86
2022/01/14 10:45:34;;;;;;;36.45;15.20;;;7.70;99.90;;;;;;4956845;29;20364;-86
2022/01/14 10:48:01;;;;;;;58.70;30.48;;;7.30;99.90;;;;;;4955699;29;20122;-86
2022/01/14 10:50:41;;;;;;;47.40;24.02;;;6.90;99.90;;;;;;4955219;29;20126;-86
2022/01/14 10:53:14;;;;;;;33.25;17.25;;;6.40;99.90;;;;;;4939919;29;20082;-86
2022/01/14 10:55:46;;;;;;;58.92;30.60;;;6.00;99.90;;;;;;4939805;29;20503;-86
2022/01/14 10:58:15;;;;;;;33.45;19.05;;;5.60;99.90;;;;;;4939939;29;20047;-85
2022/01/14 11:00:47;;;;;;;49.88;25.17;;;5.40;99.90;;;;;;4939881;29;20094;-87
2022/01/14 11:03:13;;;;;;;48.38;21.38;;;5.30;99.90;;;;;;4955916;29;20373;-86
2022/01/14 11:06:14;;;;;;;31.88;14.93;;;5.20;99.90;;;;;;4939698;29;20375;-86
2022/01/14 11:09:11;;;;;;;30.33;15.32;;;5.30;99.90;;;;;;4939185;29;20126;-86
2022/01/14 11:11:42;;;;;;;21.60;11.10;;;5.50;99.90;;;;;;4963567;29;20386;-86
2022/01/14 11:14:08;;;;;;;10.80;5.80;;;5.60;99.90;;;;;;4939333;29;20031;-86
2022/01/14 11:16:35;;;;;;;8.40;4.65;;;5.80;99.90;;;;;;4956668;29;20019;-86
2022/01/14 11:19:02;;;;;;;9.77;5.22;;;5.90;99.90;;;;;;4955360;29;20039;-86
2022/01/14 11:24:26;;;;;;;12.63;6.32;;;5.90;99.90;;;;;;4954795;29;20035;-87
2022/01/14 11:27:20;;;;;;;14.10;6.50;;;5.60;99.90;;;;;;4955002;29;20038;-86
2022/01/14 11:29:48;;;;;;;14.13;6.55;;;5.40;99.90;;;;;;4938709;29;20380;-86
2022/01/14 11:32:14;;;;;;;9.88;6.43;;;5.40;99.90;;;;;;4955041;29;20509;-86
2022/01/14 11:34:44;;;;;;;12.18;6.43;;;5.60;99.90;;;;;;4954606;29;20403;-86
2022/01/14 11:37:11;;;;;;;17.63;7.22;;;5.80;99.90;;;;;;4954973;29;20031;-86
2022/01/14 11:39:39;;;;;;;10.40;5.82;;;6.00;99.90;;;;;;4938326;29;20039;-86
2022/01/14 11:42:39;;;;;;;32.70;15.90;;;6.20;99.90;;;;;;4938639;29;20521;-86
2022/01/14 11:45:06;;;;;;;9.38;5.68;;;6.60;99.90;;;;;;4938925;29;20031;-86
2022/01/14 11:47:46;;;;;;;11.50;5.18;;;7.20;99.90;;;;;;4938791;29;20035;-86
2022/01/14 11:50:23;;;;;;;7.65;5.10;;;7.60;99.90;;;;;;4954516;29;20118;-86
2022/01/14 11:52:51;;;;;;;9.23;5.35;;;7.60;99.90;;;;;;4954580;29;20090;-86
2022/01/14 11:55:22;;;;;;;10.85;5.88;;;7.80;99.90;;;;;;4954695;29;20045;-86
2022/01/14 11:57:50;;;;;;;9.32;5.00;;;8.20;99.90;;;;;;4938514;29;20039;-86
2022/01/14 12:00:41;;;;;;;9.90;4.82;;;8.60;99.90;;;;;;4954379;29;20039;-86
2022/01/14 12:03:07;;;;;;;9.55;5.50;;;9.20;99.90;;;;;;4954615;29;20031;-86
2022/01/14 12:05:34;;;;;;;8.95;5.30;;;9.30;99.90;;;;;;4938668;29;20038;-86
2022/01/14 12:08:03;;;;;;;17.67;11.23;;;9.10;99.90;;;;;;4954831;29;20034;-86
2022/01/14 12:10:30;;;;;;;13.95;7.47;;;8.20;99.90;;;;;;4955797;29;20027;-87
2022/01/14 12:13:21;;;;;;;10.57;6.07;;;7.40;99.90;;;;;;4938316;29;20090;-86
2022/01/14 12:15:57;;;;;;;13.67;7.97;;;6.80;99.90;;;;;;4938351;29;20040;-86
2022/01/14 12:18:56;;;;;;;13.02;8.10;;;6.20;99.90;;;;;;4953828;29;20142;-85
2022/01/14 12:21:37;;;;;;;14.15;10.07;;;5.80;99.90;;;;;;4937676;29;20031;-86
2022/01/14 12:24:44;;;;;;;46.78;23.58;;;5.60;99.90;;;;;;4953964;29;20062;-86
2022/01/14 12:27:11;;;;;;;46.92;20.63;;;5.40;99.90;;;;;;4952798;29;20047;-86
2022/01/14 12:29:45;;;;;;;49.42;25.95;;;5.20;99.90;;;;;;4938149;29;20039;-86
2022/01/14 12:32:13;;;;;;;20.02;10.82;;;5.10;99.90;;;;;;4938255;29;20445;-86
2022/01/14 12:34:57;;;;;;;9.55;6.32;;;5.00;99.90;;;;;;4938052;29;20059;-86
2022/01/14 12:37:26;;;;;;;12.88;6.80;;;5.00;99.90;;;;;;4954259;29;20071;-86
2022/01/14 12:40:10;;;;;;;12.23;7.28;;;5.00;99.90;;;;;;4953862;29;20058;-86
2022/01/14 12:42:37;;;;;;;13.52;6.78;;;4.90;99.90;;;;;;4938443;29;20059;-86
2022/01/14 12:45:06;;;;;;;13.70;6.95;;;4.90;99.90;;;;;;4954255;29;20133;-85
2022/01/14 12:47:38;;;;;;;14.10;6.63;;;4.90;99.90;;;;;;4954011;29;20520;-86
2022/01/14 12:50:08;;;;;;;12.55;5.50;;;4.90;99.90;;;;;;4954275;29;20031;-85
2022/01/14 12:52:48;;;;;;;13.48;6.75;;;4.90;99.90;;;;;;4956776;29;20031;-86
2022/01/14 12:55:15;;;;;;;15.05;6.70;;;4.90;99.90;;;;;;4957582;29;20031;-86
2022/01/14 12:57:41;;;;;;;12.15;5.95;;;4.80;99.90;;;;;;4957834;29;20122;-86
2022/01/14 13:00:09;;;;;;;9.48;5.50;;;4.80;99.90;;;;;;4957964;29;20571;-85
2022/01/14 13:02:35;;;;;;;13.02;6.15;;;4.90;99.90;;;;;;4958007;29;20035;-86
2022/01/14 13:05:21;;;;;;;10.40;5.95;;;4.90;99.90;;;;;;4957673;29;20054;-86
2022/01/14 13:07:48;;;;;;;12.18;5.97;;;4.90;99.90;;;;;;4957659;29;20035;-86